Time;durP1;ratioP1;P1;durP2;ratioP2;P2;SDS_P1;SDS_P2;PMS_P1;PMS_P2;Temp;Humidity;BMP_temperature;BMP_pressure;BME280_temperature;BME280_humidity;BME280_pressure;Samples;Min_cycle;Max_cycle;Signal;HPM_P1;HPM_P2
2022/05/30 00:00:07;;;;;;;1.17;0.60;;;;;21.30;100176.00;;;;2069420;28;20230;-58
2022/05/30 00:01:12;;;;;;;0.93;0.55;;;;;21.30;100173.00;;;;2059816;28;20656;-57
2022/05/30 00:02:13;;;;;;;1.10;0.60;;;;;21.30;100170.00;;;;2062185;28;20218;-57
2022/05/30 00:03:13;;;;;;;1.03;0.60;;;;;21.30;100175.00;;;;2069642;28;20218;-57
2022/05/30 00:04:14;;;;;;;1.47;0.80;;;;;21.30;100168.00;;;;2069293;28;20210;-57
2022/05/30 00:05:14;;;;;;;1.20;0.60;;;;;21.10;100163.00;;;;2069855;28;20297;-57
2022/05/30 00:06:16;;;;;;;0.97;0.80;;;;;21.30;100168.00;;;;2068961;28;20743;-57
2022/05/30 00:07:17;;;;;;;1.00;0.60;;;;;21.30;100162.00;;;;2069468;28;20203;-57
2022/05/30 00:08:18;;;;;;;1.20;0.70;;;;;21.30;100162.00;;;;2061617;28;20354;-57
2022/05/30 00:09:19;;;;;;;0.77;0.60;;;;;21.30;100170.00;;;;2061554;28;20230;-58
2022/05/30 00:10:22;;;;;;;1.43;0.67;;;;;21.30;100165.00;;;;2061376;28;20211;-57
2022/05/30 00:11:22;;;;;;;1.20;0.60;;;;;21.30;100159.00;;;;2070084;28;20695;-57
2022/05/30 00:12:22;;;;;;;1.10;0.70;;;;;21.30;100159.00;;;;2070287;28;20317;-57
2022/05/30 00:13:23;;;;;;;1.70;0.80;;;;;21.30;100158.00;;;;2070205;28;20215;-57
2022/05/30 00:14:23;;;;;;;1.10;0.60;;;;;21.30;100163.00;;;;2070136;28;20272;-57
2022/05/30 00:15:24;;;;;;;2.03;0.73;;;;;21.30;100166.00;;;;2069559;28;20268;-58
2022/05/30 00:16:24;;;;;;;1.13;0.57;;;;;21.30;100162.00;;;;2069683;28;20222;-57
2022/05/30 00:17:25;;;;;;;2.20;0.80;;;;;21.30;100163.00;;;;2069450;28;20706;-57
2022/05/30 00:18:26;;;;;;;1.67;0.60;;;;;21.30;100163.00;;;;2070052;28;20617;-57
2022/05/30 00:19:26;;;;;;;1.33;0.70;;;;;21.30;100161.00;;;;2070397;28;20281;-57
2022/05/30 00:20:26;;;;;;;1.30;0.70;;;;;21.30;100159.00;;;;2069583;28;20851;-57
2022/05/30 00:21:27;;;;;;;1.43;0.67;;;;;21.30;100150.00;;;;2069386;28;20215;-57
2022/05/30 00:22:27;;;;;;;0.90;0.50;;;;;21.30;100163.00;;;;2069741;28;20283;-57
2022/05/30 00:23:28;;;;;;;1.00;0.70;;;;;21.30;100161.00;;;;2062061;28;20210;-57
2022/05/30 00:24:28;;;;;;;1.03;0.67;;;;;21.30;100155.00;;;;2075787;28;20400;-57
2022/05/30 00:25:28;;;;;;;1.30;0.77;;;;;20.90;100161.00;;;;2079195;28;20593;-57
2022/05/30 00:26:29;;;;;;;1.10;0.67;;;;;21.30;100154.00;;;;2079903;28;20857;-57
2022/05/30 00:27:29;;;;;;;0.90;0.50;;;;;21.30;100154.00;;;;2079555;28;20213;-57
2022/05/30 00:28:29;;;;;;;0.90;0.70;;;;;21.30;100163.00;;;;2070759;28;20729;-58
2022/05/30 00:29:30;;;;;;;1.00;0.60;;;;;21.30;100149.00;;;;2070727;28;20657;-58
2022/05/30 00:30:30;;;;;;;1.23;0.50;;;;;21.30;100154.00;;;;2077602;28;20630;-58
2022/05/30 00:31:31;;;;;;;1.50;0.70;;;;;21.30;100144.00;;;;2078927;28;20901;-57
2022/05/30 00:32:33;;;;;;;1.40;0.50;;;;;21.30;100151.00;;;;2078068;28;20230;-57
2022/05/30 00:33:33;;;;;;;1.38;0.82;;;;;21.30;100154.00;;;;2078809;28;20213;-57
2022/05/30 00:34:33;;;;;;;1.60;0.80;;;;;21.30;100152.00;;;;2078768;28;20290;-58
2022/05/30 00:35:34;;;;;;;1.23;0.73;;;;;21.30;100153.00;;;;2078339;28;20257;-57
2022/05/30 00:36:34;;;;;;;1.10;0.60;;;;;21.30;100148.00;;;;2079206;28;20230;-57
2022/05/30 00:37:34;;;;;;;1.00;0.87;;;;;21.30;100154.00;;;;2079248;28;21771;-58
2022/05/30 00:38:35;;;;;;;1.90;0.83;;;;;21.30;100146.00;;;;2079418;28;20233;-57
2022/05/30 00:39:35;;;;;;;1.30;0.70;;;;;21.30;100148.00;;;;2079092;28;20218;-57
2022/05/30 00:40:35;;;;;;;1.40;0.87;;;;;21.30;100145.00;;;;2078428;28;20227;-57
2022/05/30 00:41:36;;;;;;;1.67;1.00;;;;;21.30;100152.00;;;;2078287;28;20688;-57
2022/05/30 00:42:36;;;;;;;1.30;0.80;;;;;21.30;100150.00;;;;2079853;28;20241;-57
2022/05/30 00:43:38;;;;;;;0.80;0.60;;;;;21.30;100155.00;;;;2079127;28;20214;-58
2022/05/30 00:44:43;;;;;;;1.50;0.73;;;;;21.30;100150.00;;;;2078796;28;20338;-58
2022/05/30 00:45:43;;;;;;;1.58;0.88;;;;;21.30;100149.00;;;;2079108;28;20217;-57
2022/05/30 00:46:44;;;;;;;1.40;0.90;;;;;21.30;100151.00;;;;2078760;28;20240;-57
2022/05/30 00:47:44;;;;;;;0.90;0.50;;;;;21.30;100151.00;;;;2078947;28;20331;-57
2022/05/30 00:48:50;;;;;;;1.07;0.60;;;;;21.30;100153.00;;;;2079888;28;20210;-57
2022/05/30 00:49:50;;;;;;;1.52;0.60;;;;;21.30;100152.00;;;;2078546;28;20224;-57
2022/05/30 00:50:51;;;;;;;1.37;0.77;;;;;21.20;100152.00;;;;2070843;28;20217;-57
2022/05/30 00:51:53;;;;;;;1.93;0.70;;;;;21.30;100144.00;;;;2062828;28;20215;-57
2022/05/30 00:52:53;;;;;;;1.10;0.70;;;;;21.30;100147.00;;;;2060953;28;20767;-57
2022/05/30 00:53:55;;;;;;;1.47;0.70;;;;;21.30;100145.00;;;;2081523;28;20275;-58
2022/05/30 00:55:22;;;;;;;1.65;0.80;;;;;21.30;100145.00;;;;2070774;28;20778;-58
2022/05/30 00:56:27;;;;;;;1.25;0.68;;;;;21.20;100141.00;;;;2062126;28;20232;-57
2022/05/30 00:57:28;;;;;;;1.33;0.80;;;;;21.30;100144.00;;;;2063149;28;20301;-57
2022/05/30 00:58:29;;;;;;;2.03;1.13;;;;;21.20;100142.00;;;;2063113;28;20886;-57
2022/05/30 00:59:30;;;;;;;2.13;0.80;;;;;21.30;100139.00;;;;2062645;28;20225;-58
2022/05/30 01:00:30;;;;;;;1.50;1.00;;;;;21.30;100141.00;;;;2047909;28;20216;-58
2022/05/30 01:01:31;;;;;;;1.03;0.67;;;;;21.20;100138.00;;;;2070421;28;20233;-57
2022/05/30 01:02:33;;;;;;;1.13;0.70;;;;;21.20;100135.00;;;;2079711;28;20237;-56
2022/05/30 01:07:30;;;;;;;1.85;0.70;;;;;21.30;100138.00;;;;2075389;28;20218;-57
2022/05/30 01:08:31;;;;;;;1.53;0.80;;;;;21.20;100136.00;;;;2073322;28;20222;-57
2022/05/30 01:09:36;;;;;;;1.90;0.70;;;;;21.30;100126.00;;;;2078863;28;20972;-57
2022/05/30 01:10:36;;;;;;;1.67;0.80;;;;;21.20;100134.00;;;;2070786;28;20725;-58
2022/05/30 01:12:09;;;;;;;1.33;0.50;;;;;21.20;100141.00;;;;2070209;28;20248;-57
2022/05/30 01:13:10;;;;;;;1.48;0.63;;;;;21.20;100143.00;;;;2070970;28;20266;-58
2022/05/30 01:14:10;;;;;;;1.60;0.77;;;;;21.20;100137.00;;;;2076918;28;20221;-58
2022/05/30 01:15:13;;;;;;;1.27;0.77;;;;;21.20;100067.00;;;;2079041;28;20213;-57
2022/05/30 01:16:14;;;;;;;1.65;0.98;;;;;21.20;100139.00;;;;2073584;28;20301;-57
2022/05/30 01:17:15;;;;;;;1.70;0.77;;;;;21.20;100143.00;;;;2070544;28;20218;-57
2022/05/30 01:18:20;;;;;;;1.25;0.50;;;;;21.20;100140.00;;;;2070753;28;20746;-57
2022/05/30 01:19:27;;;;;;;1.48;0.75;;;;;21.20;100137.00;;;;2063391;28;20306;-57
2022/05/30 01:20:36;;;;;;;1.25;0.65;;;;;21.20;100130.00;;;;2063614;28;20218;-58
2022/05/30 01:22:09;;;;;;;1.30;0.70;;;;;21.20;100134.00;;;;2063639;28;20217;-57
2022/05/30 01:23:31;;;;;;;1.70;0.65;;;;;21.20;100142.00;;;;2066067;28;20217;-57
2022/05/30 01:24:46;;;;;;;1.02;0.50;;;;;21.20;100132.00;;;;2065229;28;20268;-57
2022/05/30 01:26:11;;;;;;;1.50;0.75;;;;;21.30;100136.00;;;;2064723;28;21000;-57
2022/05/30 01:27:24;;;;;;;1.10;0.60;;;;;21.20;100136.00;;;;2070563;28;20598;-57
2022/05/30 01:28:25;;;;;;;1.25;0.80;;;;;21.20;100139.00;;;;2052544;28;20305;-58
2022/05/30 01:29:27;;;;;;;1.10;0.67;;;;;21.20;100119.00;;;;2063822;28;20257;-58
2022/05/30 01:30:27;;;;;;;1.30;0.60;;;;;21.20;100134.00;;;;2062505;28;20270;-58
2022/05/30 01:31:28;;;;;;;1.20;0.60;;;;;21.20;100132.00;;;;2062311;28;20223;-58
2022/05/30 01:32:28;;;;;;;1.03;0.60;;;;;21.20;100128.00;;;;2070627;28;20297;-57
2022/05/30 01:33:29;;;;;;;0.90;0.60;;;;;21.20;100096.00;;;;2070449;28;20654;-57
2022/05/30 01:34:29;;;;;;;0.93;0.60;;;;;21.20;100134.00;;;;2070983;28;21093;-58
2022/05/30 01:35:29;;;;;;;1.53;0.70;;;;;21.20;100132.00;;;;2061101;28;20679;-58
2022/05/30 01:36:30;;;;;;;0.90;0.53;;;;;21.20;100126.00;;;;2071104;28;20210;-57
2022/05/30 01:37:31;;;;;;;1.73;0.60;;;;;21.20;100129.00;;;;2070889;28;20640;-57
2022/05/30 01:38:31;;;;;;;1.50;0.70;;;;;21.20;100143.00;;;;2071409;28;20214;-57
2022/05/30 01:39:31;;;;;;;1.17;0.70;;;;;21.20;100129.00;;;;2070438;28;20214;-57
2022/05/30 01:40:32;;;;;;;1.33;0.60;;;;;21.20;100136.00;;;;2070645;28;20218;-57
2022/05/30 01:41:32;;;;;;;1.30;0.70;;;;;21.20;100128.00;;;;2071063;28;20226;-57
2022/05/30 01:42:32;;;;;;;1.20;0.70;;;;;21.20;100130.00;;;;2071382;28;20225;-57
2022/05/30 01:43:33;;;;;;;1.47;0.73;;;;;21.20;100128.00;;;;2071192;28;20218;-57
2022/05/30 01:44:33;;;;;;;1.53;0.80;;;;;21.20;100127.00;;;;2070567;28;20221;-57
2022/05/30 01:45:34;;;;;;;1.37;0.50;;;;;21.20;100138.00;;;;2069720;28;20222;-57
2022/05/30 01:46:34;;;;;;;1.40;0.80;;;;;21.20;100128.00;;;;2064456;28;20775;-57
2022/05/30 01:47:34;;;;;;;1.33;0.60;;;;;21.20;100133.00;;;;2070989;28;20217;-57
2022/05/30 01:48:35;;;;;;;1.10;0.60;;;;;21.20;100126.00;;;;2069627;28;20216;-58
2022/05/30 01:49:35;;;;;;;1.43;0.73;;;;;21.20;100131.00;;;;2078438;28;20888;-57
2022/05/30 01:50:35;;;;;;;0.93;0.70;;;;;21.20;100126.00;;;;2067165;28;20859;-58
2022/05/30 01:51:36;;;;;;;1.60;0.80;;;;;21.20;100129.00;;;;2078280;28;20295;-57
2022/05/30 01:52:36;;;;;;;1.07;0.77;;;;;21.20;100125.00;;;;2078667;28;20241;-57
2022/05/30 01:53:36;;;;;;;1.00;0.50;;;;;21.20;100125.00;;;;2078668;28;20214;-57
2022/05/30 01:54:37;;;;;;;1.50;0.60;;;;;21.20;100121.00;;;;2078527;28;20373;-57
2022/05/30 01:55:37;;;;;;;1.30;0.70;;;;;21.20;100125.00;;;;2078550;28;20214;-57
2022/05/30 01:56:38;;;;;;;1.97;0.90;;;;;21.20;100125.00;;;;2079005;28;20276;-57
2022/05/30 01:57:38;;;;;;;1.13;0.50;;;;;21.20;100127.00;;;;2078992;28;20244;-57
2022/05/30 01:58:38;;;;;;;1.60;0.73;;;;;21.20;100121.00;;;;2079242;28;20247;-57
2022/05/30 01:59:38;;;;;;;1.77;0.70;;;;;21.20;100125.00;;;;2078284;28;20228;-58
2022/05/30 02:00:39;;;;;;;1.50;0.80;;;;;21.20;100124.00;;;;2078581;28;20202;-57
2022/05/30 02:01:41;;;;;;;1.40;0.57;;;;;21.20;100118.00;;;;2079022;28;20217;-57
2022/05/30 02:02:41;;;;;;;1.48;0.88;;;;;21.20;100117.00;;;;2078420;28;20289;-57
2022/05/30 02:03:42;;;;;;;0.90;0.60;;;;;21.20;100121.00;;;;2072538;28;21107;-57
2022/05/30 02:04:42;;;;;;;1.40;0.77;;;;;21.20;100126.00;;;;2071096;28;20305;-57
2022/05/30 02:05:42;;;;;;;1.23;0.70;;;;;21.20;100123.00;;;;2069555;28;20222;-57
2022/05/30 02:06:43;;;;;;;1.10;0.53;;;;;21.20;100120.00;;;;2070855;28;20250;-57
2022/05/30 02:07:43;;;;;;;1.37;0.60;;;;;21.20;100123.00;;;;2070645;28;20206;-57
2022/05/30 02:08:43;;;;;;;1.10;0.60;;;;;21.20;100119.00;;;;2070738;28;20210;-57
2022/05/30 02:09:44;;;;;;;2.00;0.83;;;;;21.20;100117.00;;;;2070647;28;20202;-57
2022/05/30 02:10:44;;;;;;;1.30;0.53;;;;;21.20;100118.00;;;;2071128;28;20217;-57
2022/05/30 02:11:45;;;;;;;1.13;0.67;;;;;21.20;100121.00;;;;2069939;28;20214;-57
2022/05/30 02:12:45;;;;;;;1.10;0.60;;;;;21.20;100117.00;;;;2070297;28;20234;-57
2022/05/30 02:13:45;;;;;;;1.33;0.67;;;;;21.20;100112.00;;;;2070863;28;20264;-57
2022/05/30 02:14:46;;;;;;;1.00;0.53;;;;;21.20;100122.00;;;;2070365;28;20214;-58
2022/05/30 02:17:06;;;;;;;1.45;0.80;;;;;21.20;100117.00;;;;2069869;28;20837;-57
2022/05/30 02:18:07;;;;;;;1.47;0.60;;;;;21.20;100120.00;;;;2070597;28;20198;-58
2022/05/30 02:19:09;;;;;;;1.10;0.60;;;;;21.20;100111.00;;;;2070429;28;20464;-57
2022/05/30 02:20:10;;;;;;;0.90;0.50;;;;;21.20;100111.00;;;;2070648;28;20229;-57
2022/05/30 02:21:10;;;;;;;1.17;0.90;;;;;21.20;100118.00;;;;2069774;28;20213;-57
2022/05/30 02:22:12;;;;;;;1.67;0.67;;;;;21.20;100107.00;;;;2069642;28;20201;-57
2022/05/30 02:23:12;;;;;;;1.10;0.65;;;;;21.20;100115.00;;;;2069364;28;20263;-57
2022/05/30 02:24:13;;;;;;;1.43;0.70;;;;;21.20;100113.00;;;;2069790;28;20209;-57
2022/05/30 02:25:13;;;;;;;1.97;0.83;;;;;21.20;100111.00;;;;2070159;28;20221;-56
2022/05/30 02:26:14;;;;;;;1.70;0.70;;;;;21.20;100116.00;;;;2068822;28;20219;-57
2022/05/30 02:27:14;;;;;;;1.40;0.70;;;;;21.20;100115.00;;;;2070083;28;20217;-57
2022/05/30 02:28:15;;;;;;;1.30;0.60;;;;;21.20;100122.00;;;;2067748;28;20706;-57
2022/05/30 02:29:15;;;;;;;2.10;0.70;;;;;21.20;100116.00;;;;2061762;28;20250;-58
2022/05/30 02:30:15;;;;;;;0.90;0.50;;;;;21.20;100115.00;;;;2061176;28;20215;-57
2022/05/30 02:31:16;;;;;;;1.87;0.70;;;;;21.20;100123.00;;;;2069130;28;20210;-57
2022/05/30 02:32:16;;;;;;;1.27;0.50;;;;;21.20;100119.00;;;;2069795;28;20217;-58
2022/05/30 02:37:13;;;;;;;1.65;0.60;;;;;21.20;100118.00;;;;2074981;28;20221;-57
2022/05/30 02:38:13;;;;;;;1.20;0.70;;;;;21.20;100109.00;;;;2072669;28;20245;-57
2022/05/30 02:39:18;;;;;;;1.30;0.80;;;;;21.20;100123.00;;;;2069398;28;20258;-57
2022/05/30 02:40:18;;;;;;;1.15;0.60;;;;;21.20;100116.00;;;;2069126;28;20217;-57
2022/05/30 02:41:18;;;;;;;1.20;0.70;;;;;21.20;100112.00;;;;2077440;28;21025;-57
2022/05/30 02:42:19;;;;;;;1.20;0.67;;;;;21.20;100090.00;;;;2078028;28;20819;-58
2022/05/30 02:43:19;;;;;;;1.30;0.63;;;;;21.20;100103.00;;;;2078277;28;20780;-57
2022/05/30 02:44:20;;;;;;;1.13;0.80;;;;;21.20;100108.00;;;;2078404;28;20612;-57
2022/05/30 02:45:21;;;;;;;1.20;0.68;;;;;21.20;100103.00;;;;2077719;28;20220;-57
2022/05/30 02:46:21;;;;;;;1.13;0.70;;;;;21.20;100115.00;;;;2070362;28;20242;-57
2022/05/30 02:47:21;;;;;;;1.20;0.60;;;;;21.20;100111.00;;;;2069747;28;20236;-57
2022/05/30 02:48:22;;;;;;;2.03;0.80;;;;;21.20;100109.00;;;;2070228;28;20218;-57
2022/05/30 02:49:22;;;;;;;1.33;0.77;;;;;21.20;100116.00;;;;2067134;28;20233;-57
2022/05/30 02:50:23;;;;;;;1.33;0.80;;;;;21.20;100112.00;;;;2061973;28;20215;-57
2022/05/30 02:51:23;;;;;;;1.77;0.80;;;;;21.20;100114.00;;;;2069950;28;20220;-57
2022/05/30 02:52:23;;;;;;;2.27;0.90;;;;;21.20;100113.00;;;;2073077;28;20216;-57
2022/05/30 02:53:24;;;;;;;1.50;0.70;;;;;21.20;100111.00;;;;2077767;28;20289;-57
2022/05/30 02:54:24;;;;;;;1.10;0.60;;;;;21.20;100108.00;;;;2078796;28;20271;-57
2022/05/30 02:55:25;;;;;;;1.47;0.73;;;;;21.20;100107.00;;;;2078112;28;20209;-57
2022/05/30 02:56:25;;;;;;;1.80;0.90;;;;;21.20;100120.00;;;;2078839;28;20225;-57
2022/05/30 02:57:25;;;;;;;1.10;0.60;;;;;21.20;100118.00;;;;2078806;28;20240;-57
2022/05/30 02:58:26;;;;;;;2.23;0.80;;;;;21.20;100121.00;;;;2078879;28;20274;-57
2022/05/30 02:59:27;;;;;;;1.50;0.90;;;;;21.20;100116.00;;;;2078732;28;20213;-57
2022/05/30 03:00:27;;;;;;;1.33;0.70;;;;;21.20;100114.00;;;;2078274;28;20316;-57
2022/05/30 03:01:28;;;;;;;1.40;0.90;;;;;21.20;100110.00;;;;2078114;28;20600;-57
2022/05/30 03:02:28;;;;;;;1.73;0.93;;;;;21.10;100114.00;;;;2062032;28;20790;-57
2022/05/30 03:03:28;;;;;;;1.10;0.80;;;;;21.20;100112.00;;;;2062168;28;20238;-58
2022/05/30 03:04:28;;;;;;;1.30;0.83;;;;;21.20;100109.00;;;;2077963;28;20224;-57
2022/05/30 03:05:30;;;;;;;1.50;0.80;;;;;21.10;100106.00;;;;2077361;28;20225;-57
2022/05/30 03:06:30;;;;;;;1.42;0.80;;;;;21.20;100121.00;;;;2078600;28;20577;-58
2022/05/30 03:07:31;;;;;;;1.80;0.97;;;;;21.10;100108.00;;;;2077787;28;20232;-57
2022/05/30 03:08:31;;;;;;;1.87;0.90;;;;;21.10;100112.00;;;;2076510;28;20845;-57
2022/05/30 03:09:31;;;;;;;1.30;0.60;;;;;21.20;100106.00;;;;2078775;28;20224;-57
2022/05/30 03:10:32;;;;;;;2.03;0.70;;;;;21.20;100115.00;;;;2078378;28;20716;-57
2022/05/30 03:11:33;;;;;;;1.47;0.83;;;;;21.10;100122.00;;;;2077429;28;20209;-57
2022/05/30 03:12:33;;;;;;;2.37;0.93;;;;;21.10;100119.00;;;;2078092;28;20734;-57
2022/05/30 03:13:33;;;;;;;1.50;0.90;;;;;21.10;100120.00;;;;2078278;28;20225;-57
2022/05/30 03:14:34;;;;;;;1.73;1.00;;;;;21.10;100121.00;;;;2078498;28;20225;-57
2022/05/30 03:15:34;;;;;;;1.47;0.80;;;;;21.20;100117.00;;;;2077894;28;20221;-57
2022/05/30 03:16:35;;;;;;;1.97;1.10;;;;;21.10;100121.00;;;;2078633;28;20460;-57
2022/05/30 03:17:35;;;;;;;1.43;0.97;;;;;21.10;100119.00;;;;2078414;28;20233;-57
2022/05/30 03:18:35;;;;;;;1.40;0.90;;;;;21.10;100126.00;;;;2078793;28;20240;-57
2022/05/30 03:19:36;;;;;;;2.03;0.83;;;;;21.10;100121.00;;;;2078195;28;20647;-57
2022/05/30 03:20:36;;;;;;;1.90;0.90;;;;;21.10;100128.00;;;;2077613;28;20300;-57
2022/05/30 03:21:36;;;;;;;1.83;0.80;;;;;21.10;100122.00;;;;2075606;28;20226;-56
2022/05/30 03:22:39;;;;;;;1.33;1.10;;;;;21.10;100123.00;;;;2070597;28;20222;-57
2022/05/30 03:23:39;;;;;;;1.77;1.02;;;;;21.10;100122.00;;;;2068900;28;20283;-58
2022/05/30 03:24:40;;;;;;;1.60;0.80;;;;;21.10;100116.00;;;;2070449;28;20718;-57
2022/05/30 03:25:40;;;;;;;2.30;1.00;;;;;21.10;100121.00;;;;2069567;28;20214;-57
2022/05/30 03:26:40;;;;;;;1.20;0.70;;;;;21.20;100120.00;;;;2070341;28;20249;-57
2022/05/30 03:27:41;;;;;;;2.53;1.20;;;;;21.10;100115.00;;;;2078440;28;20259;-57
2022/05/30 03:28:41;;;;;;;1.50;0.97;;;;;21.10;100121.00;;;;2069867;28;20388;-58
2022/05/30 03:29:42;;;;;;;1.60;1.10;;;;;21.10;100124.00;;;;2069940;28;20210;-57
2022/05/30 03:30:44;;;;;;;1.70;0.80;;;;;21.10;100117.00;;;;2086243;28;20268;-57
2022/05/30 03:31:44;;;;;;;2.10;1.17;;;;;21.10;100120.00;;;;2077959;28;20260;-60
2022/05/30 03:32:44;;;;;;;2.20;1.07;;;;;21.10;100122.00;;;;2078651;28;20221;-58
2022/05/30 03:33:44;;;;;;;1.53;1.17;;;;;21.10;100125.00;;;;2078793;28;20244;-58
2022/05/30 03:34:45;;;;;;;1.20;0.80;;;;;21.10;100125.00;;;;2077328;28;20214;-57
2022/05/30 03:35:46;;;;;;;2.47;1.10;;;;;21.10;100125.00;;;;2078064;28;20225;-58
2022/05/30 03:36:46;;;;;;;1.80;1.40;;;;;21.10;100128.00;;;;2077206;28;20225;-58
2022/05/30 03:37:47;;;;;;;1.73;0.97;;;;;21.10;100121.00;;;;2069660;28;20237;-57
2022/05/30 03:38:47;;;;;;;1.10;0.80;;;;;21.10;100128.00;;;;2077689;28;20302;-57
2022/05/30 03:39:47;;;;;;;1.53;0.93;;;;;21.10;100135.00;;;;2075805;28;20219;-57
2022/05/30 03:40:48;;;;;;;1.60;1.00;;;;;21.10;100130.00;;;;2076648;28;20198;-57
2022/05/30 03:41:48;;;;;;;1.70;1.00;;;;;21.10;100129.00;;;;2069660;28;20289;-57
2022/05/30 03:42:48;;;;;;;1.93;0.97;;;;;21.10;100127.00;;;;2069494;28;20210;-57
2022/05/30 03:43:49;;;;;;;1.50;1.13;;;;;21.10;100137.00;;;;2070492;28;20210;-57
2022/05/30 03:44:49;;;;;;;1.77;1.07;;;;;21.10;100126.00;;;;2070479;28;20816;-58
2022/05/30 03:45:49;;;;;;;1.63;0.83;;;;;21.10;100130.00;;;;2069758;28;20214;-57
2022/05/30 03:46:50;;;;;;;1.50;1.03;;;;;21.10;100126.00;;;;2070434;28;20206;-57
2022/05/30 03:47:50;;;;;;;1.93;1.07;;;;;21.10;100133.00;;;;2070408;28;20229;-59
2022/05/30 03:48:50;;;;;;;1.60;0.90;;;;;21.10;100129.00;;;;2067043;28;20207;-57
2022/05/30 03:49:57;;;;;;;1.30;1.07;;;;;21.10;100127.00;;;;2070277;28;20624;-57
2022/05/30 03:50:58;;;;;;;2.28;1.15;;;;;21.10;100124.00;;;;2070144;28;20280;-57
2022/05/30 03:51:58;;;;;;;2.10;1.20;;;;;20.90;100129.00;;;;2069426;28;20226;-57
2022/05/30 03:53:05;;;;;;;1.20;0.97;;;;;21.10;100130.00;;;;2070615;28;20297;-57
2022/05/30 03:54:05;;;;;;;2.08;1.30;;;;;21.10;100132.00;;;;2061678;28;20731;-58
2022/05/30 03:55:11;;;;;;;2.00;1.10;;;;;21.10;100126.00;;;;2062713;28;20206;-57
2022/05/30 03:56:12;;;;;;;1.92;1.00;;;;;21.10;100128.00;;;;2068904;28;20213;-58
2022/05/30 03:57:12;;;;;;;1.60;1.20;;;;;21.10;100133.00;;;;2070194;28;20301;-57
2022/05/30 03:58:13;;;;;;;1.60;0.90;;;;;21.10;100128.00;;;;2078281;28;20222;-57
2022/05/30 03:59:13;;;;;;;1.60;1.00;;;;;21.10;100129.00;;;;2079477;28;20271;-57
2022/05/30 04:00:20;;;;;;;2.03;1.30;;;;;21.10;100127.00;;;;2079251;28;20349;-58
2022/05/30 04:01:21;;;;;;;2.55;1.40;;;;;21.10;100129.00;;;;2079026;28;20217;-57
2022/05/30 04:02:21;;;;;;;1.87;1.03;;;;;21.10;100136.00;;;;2067773;28;20234;-57
2022/05/30 04:03:21;;;;;;;1.43;0.90;;;;;21.10;100128.00;;;;2072131;28;20230;-58
2022/05/30 04:04:22;;;;;;;1.37;1.20;;;;;21.10;100130.00;;;;2074437;28;20225;-57
2022/05/30 04:05:23;;;;;;;1.40;1.00;;;;;21.10;100140.00;;;;2079453;28;20237;-57
2022/05/30 04:06:23;;;;;;;1.60;1.20;;;;;21.10;100131.00;;;;2079915;28;20781;-57
2022/05/30 04:07:23;;;;;;;1.30;1.07;;;;;21.10;100128.00;;;;2079458;28;20286;-57
2022/05/30 04:08:23;;;;;;;1.20;0.97;;;;;21.10;100129.00;;;;2079700;28;20588;-57
2022/05/30 04:09:24;;;;;;;2.00;1.00;;;;;21.10;100130.00;;;;2080022;28;20708;-58
2022/05/30 04:10:24;;;;;;;1.43;0.97;;;;;21.10;100125.00;;;;2079635;28;20307;-57
2022/05/30 04:11:25;;;;;;;2.37;0.90;;;;;21.10;100130.00;;;;2079971;28;20627;-57
2022/05/30 04:12:25;;;;;;;2.13;1.20;;;;;21.10;100130.00;;;;2079474;28;20225;-57
2022/05/30 04:13:25;;;;;;;1.30;1.00;;;;;21.10;100129.00;;;;2079824;28;20244;-57
2022/05/30 04:14:26;;;;;;;2.23;1.10;;;;;21.10;100125.00;;;;2079153;28;20217;-59
2022/05/30 04:15:26;;;;;;;1.63;1.03;;;;;21.10;100125.00;;;;2069888;28;20218;-58
2022/05/30 04:16:27;;;;;;;1.33;0.80;;;;;21.10;100128.00;;;;2079190;28;20222;-57
2022/05/30 04:17:27;;;;;;;2.53;1.20;;;;;21.10;100128.00;;;;2079936;28;20236;-57
2022/05/30 04:18:28;;;;;;;1.57;1.10;;;;;21.10;100124.00;;;;2078673;28;21131;-57
2022/05/30 04:19:28;;;;;;;2.23;1.30;;;;;21.10;100127.00;;;;2079336;28;20228;-57
2022/05/30 04:20:29;;;;;;;1.80;1.07;;;;;21.10;100122.00;;;;2079847;28;20205;-58
2022/05/30 04:21:29;;;;;;;1.30;1.07;;;;;21.10;100127.00;;;;2079935;28;20244;-57
2022/05/30 04:22:29;;;;;;;1.50;0.93;;;;;21.10;100125.00;;;;2079736;28;20878;-57
2022/05/30 04:23:30;;;;;;;1.90;1.00;;;;;21.10;100129.00;;;;2079579;28;20242;-57
2022/05/30 04:24:30;;;;;;;2.93;1.30;;;;;21.10;100124.00;;;;2078869;28;20224;-57
2022/05/30 04:25:30;;;;;;;1.40;0.90;;;;;21.10;100133.00;;;;2079172;28;20213;-58
2022/05/30 04:26:31;;;;;;;2.13;1.30;;;;;21.10;100133.00;;;;2079416;28;20304;-57
2022/05/30 04:27:32;;;;;;;1.93;0.90;;;;;21.10;100132.00;;;;2077105;28;20221;-57
2022/05/30 04:28:32;;;;;;;1.88;1.10;;;;;21.10;100134.00;;;;2079044;28;20229;-57
2022/05/30 04:29:33;;;;;;;2.03;1.13;;;;;21.10;100131.00;;;;2077509;28;20733;-57
2022/05/30 04:30:33;;;;;;;1.90;1.30;;;;;21.10;100137.00;;;;2079296;28;20295;-57
2022/05/30 04:31:33;;;;;;;2.90;1.40;;;;;21.10;100134.00;;;;2079960;28;20343;-57
2022/05/30 04:32:35;;;;;;;1.60;1.07;;;;;21.10;100130.00;;;;2077524;28;20221;-57
2022/05/30 04:33:35;;;;;;;1.45;1.05;;;;;21.10;100140.00;;;;2079274;28;20853;-56
2022/05/30 04:34:36;;;;;;;1.73;1.13;;;;;21.10;100133.00;;;;2078621;28;20228;-57
2022/05/30 04:35:36;;;;;;;1.73;1.00;;;;;21.10;100144.00;;;;2075499;28;20210;-57
2022/05/30 04:36:37;;;;;;;1.70;1.10;;;;;21.10;100146.00;;;;2071599;28;20718;-56
2022/05/30 04:37:37;;;;;;;1.70;0.80;;;;;21.10;100137.00;;;;2072619;28;20213;-54
2022/05/30 04:38:37;;;;;;;2.67;1.33;;;;;21.10;100133.00;;;;2072123;28;20214;-58
2022/05/30 04:39:38;;;;;;;1.70;1.03;;;;;21.10;100145.00;;;;2071988;28;20210;-56
2022/05/30 04:40:38;;;;;;;1.90;1.07;;;;;21.10;100141.00;;;;2072679;28;20206;-56
2022/05/30 04:41:38;;;;;;;1.30;1.10;;;;;21.10;100135.00;;;;2072596;28;20206;-58
2022/05/30 04:42:39;;;;;;;1.73;0.90;;;;;21.10;100138.00;;;;2071692;28;20302;-59
2022/05/30 04:43:40;;;;;;;1.87;1.00;;;;;21.10;100137.00;;;;2075398;28;20201;-59
2022/05/30 04:44:40;;;;;;;1.60;1.10;;;;;21.10;100140.00;;;;2080797;28;20986;-58
2022/05/30 04:45:40;;;;;;;2.53;1.23;;;;;21.10;100147.00;;;;2080773;28;20690;-58
2022/05/30 04:46:41;;;;;;;1.40;0.93;;;;;21.10;100143.00;;;;2080818;28;20542;-57
2022/05/30 04:47:41;;;;;;;1.70;1.10;;;;;21.10;100141.00;;;;2073441;28;20702;-57
2022/05/30 04:48:41;;;;;;;1.27;1.07;;;;;21.10;100133.00;;;;2072004;28;20690;-55
2022/05/30 04:49:42;;;;;;;1.53;1.10;;;;;21.10;100144.00;;;;2063685;28;20215;-59
2022/05/30 04:50:42;;;;;;;1.90;1.10;;;;;21.10;100143.00;;;;2071937;28;20210;-58
2022/05/30 04:51:42;;;;;;;2.67;1.00;;;;;21.10;100139.00;;;;2072300;28;20740;-57
2022/05/30 04:52:43;;;;;;;2.37;1.17;;;;;21.10;100153.00;;;;2072323;28;20682;-57
2022/05/30 04:53:44;;;;;;;2.33;1.00;;;;;21.10;100138.00;;;;2068654;28;20711;-57
2022/05/30 04:54:44;;;;;;;2.50;1.30;;;;;21.10;100157.00;;;;2070442;28;20619;-57
2022/05/30 04:55:44;;;;;;;1.70;1.10;;;;;21.10;100153.00;;;;2079812;28;20604;-60
2022/05/30 04:56:45;;;;;;;1.67;1.00;;;;;21.10;100151.00;;;;2079906;28;20264;-59
2022/05/30 04:57:47;;;;;;;2.67;1.27;;;;;21.10;100153.00;;;;2080018;28;20213;-56
2022/05/30 04:58:47;;;;;;;2.42;1.08;;;;;21.10;100147.00;;;;2071430;28;20202;-55
2022/05/30 04:59:47;;;;;;;1.63;1.10;;;;;21.10;100156.00;;;;2071842;28;20210;-55
2022/05/30 05:00:48;;;;;;;2.50;1.33;;;;;21.10;100145.00;;;;2064354;28;20222;-56
2022/05/30 05:01:48;;;;;;;1.60;0.90;;;;;21.10;100153.00;;;;2071414;28;20241;-55
2022/05/30 05:02:53;;;;;;;2.33;1.10;;;;;21.10;100150.00;;;;2072159;28;20222;-59
2022/05/30 05:03:54;;;;;;;1.45;0.80;;;;;21.10;100147.00;;;;2063631;28;20210;-57
2022/05/30 05:04:54;;;;;;;2.00;1.10;;;;;21.10;100153.00;;;;2064138;28;20265;-55
2022/05/30 05:06:09;;;;;;;3.00;1.20;;;;;21.10;100150.00;;;;2071762;28;20214;-56
2022/05/30 05:07:09;;;;;;;1.60;0.95;;;;;21.10;100147.00;;;;2064186;28;20675;-57
2022/05/30 05:08:16;;;;;;;1.20;1.00;;;;;21.10;100157.00;;;;2064872;28;20226;-58
2022/05/30 05:09:16;;;;;;;1.48;1.05;;;;;21.10;100153.00;;;;2079243;28;20225;-55
2022/05/30 05:10:55;;;;;;;1.80;0.83;;;;;21.10;100150.00;;;;2079772;28;20690;-56
2022/05/30 05:11:55;;;;;;;2.08;1.27;;;;;21.10;100147.00;;;;2078315;28;20241;-60
2022/05/30 05:12:56;;;;;;;2.43;1.10;;;;;21.10;100153.00;;;;2080447;28;20225;-58